Time;durP1;ratioP1;P1;durP2;ratioP2;P2;SDS_P1;SDS_P2;PMS_P1;PMS_P2;Temp;Humidity;BMP_temperature;BMP_pressure;BME280_temperature;BME280_humidity;BME280_pressure;Samples;Min_cycle;Max_cycle;Signal;HPM_P1;HPM_P2
2022/09/19 00:01:13;;;;;;;;;6.00;3.00;;;;;21.38;34.94;101607.91;5099856;27;45447;-46
2022/09/19 00:03:40;;;;;;;;;2.00;2.00;;;;;21.38;34.81;101616.69;5101443;27;45499;-46
2022/09/19 00:06:09;;;;;;;;;2.00;2.00;;;;;21.38;34.82;101610.53;5112517;27;45302;-48
2022/09/19 00:08:36;;;;;;;;;3.25;3.00;;;;;21.37;34.72;101606.19;5110312;27;45613;-48
2022/09/19 00:11:02;;;;;;;;;3.25;2.00;;;;;21.37;35.07;101607.06;5103777;27;45160;-47
2022/09/19 00:13:29;;;;;;;;;2.00;2.00;;;;;21.37;34.79;101606.19;5100713;27;45473;-45
2022/09/19 00:15:54;;;;;;;;;2.25;2.25;;;;;21.37;35.20;101608.81;5099157;27;45651;-46
2022/09/19 00:18:20;;;;;;;;;2.50;2.50;;;;;21.37;35.14;101606.19;5098767;27;45734;-45
2022/09/19 00:20:47;;;;;;;;;3.00;3.00;;;;;21.37;34.98;101609.69;5098763;27;45458;-46
2022/09/19 00:26:01;;;;;;;;;4.75;2.00;;;;;21.36;35.00;101612.38;5098059;27;45358;-45
2022/09/19 00:28:27;;;;;;;;;2.25;2.00;;;;;21.37;34.99;101611.47;5098151;27;45349;-47
2022/09/19 00:30:54;;;;;;;;;2.00;2.00;;;;;21.37;35.14;101614.09;5098198;27;45513;-47
2022/09/19 00:33:20;;;;;;;;;2.50;2.50;;;;;21.37;35.26;101611.47;5098575;27;45317;-46
2022/09/19 00:35:49;;;;;;;;;3.25;2.25;;;;;21.36;34.86;101609.75;5099249;27;45449;-49
2022/09/19 00:38:14;;;;;;;;;2.50;2.50;;;;;21.36;35.20;101615.03;5097548;27;47415;-46
2022/09/19 00:40:40;;;;;;;;;2.50;1.00;;;;;21.35;35.22;101615.94;5098878;27;45360;-47
2022/09/19 00:43:05;;;;;;;;;2.75;2.75;;;;;21.35;35.22;101613.31;5098490;27;45389;-46
2022/09/19 00:45:30;;;;;;;;;5.50;3.00;;;;;21.35;35.36;101618.59;5098361;27;45378;-48
2022/09/19 00:47:56;;;;;;;;;3.25;2.50;;;;;21.35;35.22;101627.38;5097399;27;57858;-46
2022/09/19 00:50:27;;;;;;;;;2.00;2.00;;;;;21.35;35.27;101629.13;5097848;27;45361;-46
2022/09/19 00:53:00;;;;;;;;;2.75;2.75;;;;;21.35;35.08;101623.84;5097774;27;45447;-48
2022/09/19 00:55:27;;;;;;;;;3.00;3.00;;;;;21.35;35.36;101623.84;5111189;27;45294;-46
2022/09/19 00:57:58;;;;;;;;;3.00;2.00;;;;;21.34;35.12;101628.28;5109438;27;45370;-50
2022/09/19 01:00:24;;;;;;;;;4.00;2.00;;;;;21.34;35.22;101620.38;5096949;27;45389;-47
2022/09/19 01:02:50;;;;;;;;;1.25;1.25;;;;;21.35;35.13;101624.72;5097182;27;45402;-49
2022/09/19 01:05:16;;;;;;;;;2.75;2.75;;;;;21.34;35.54;101620.38;5098720;27;45361;-47
2022/09/19 01:08:15;;;;;;;;;2.00;2.00;;;;;21.35;35.36;101627.38;5097105;27;47190;-46
2022/09/19 01:10:49;;;;;;;;;2.00;2.00;;;;;21.35;35.60;101626.50;5097326;27;45258;-48
2022/09/19 01:13:31;;;;;;;;;1.75;1.75;;;;;21.34;35.23;101628.28;5097864;27;45301;-48
2022/09/19 01:16:18;;;;;;;;;4.00;3.00;;;;;21.35;35.41;101621.22;5097292;27;45450;-46
2022/09/19 01:19:05;;;;;;;;;4.00;2.00;;;;;21.34;35.65;101622.16;5097513;27;46730;-47
2022/09/19 01:21:40;;;;;;;;;1.00;1.00;;;;;21.34;35.67;101623.03;5096400;27;45352;-49
2022/09/19 01:24:37;;;;;;;;;4.00;2.00;;;;;21.35;35.48;101623.84;5096885;27;45276;-50
2022/09/19 01:27:21;;;;;;;;;2.75;2.75;;;;;21.35;35.19;101626.50;5097796;27;45298;-48
2022/09/19 01:30:09;;;;;;;;;2.75;2.00;;;;;21.34;35.69;101620.38;5097855;27;46381;-46
2022/09/19 01:32:42;;;;;;;;;2.25;2.00;;;;;21.33;35.56;101626.56;5097593;27;45312;-47
2022/09/19 01:35:12;;;;;;;;;2.00;2.00;;;;;21.34;35.59;101630.06;5097400;27;45320;-47
2022/09/19 01:37:54;;;;;;;;;2.50;2.50;;;;;21.35;35.47;101629.13;5097188;27;45380;-47
2022/09/19 01:40:21;;;;;;;;;2.00;2.00;;;;;21.34;35.59;101625.66;5097377;27;46097;-46
2022/09/19 01:42:55;;;;;;;;;3.00;1.75;;;;;21.35;35.19;101626.50;5097705;27;45415;-50
2022/09/19 01:45:31;;;;;;;;;2.00;2.00;;;;;21.34;35.48;101623.03;5097160;27;45298;-47
2022/09/19 01:48:05;;;;;;;;;2.00;2.00;;;;;21.34;35.33;101628.28;5102104;27;45432;-48
2022/09/19 01:50:51;;;;;;;;;3.00;3.00;;;;;21.34;35.61;101630.06;5100001;27;46548;-47
2022/09/19 01:53:46;;;;;;;;;3.00;3.00;;;;;21.34;35.62;101625.66;5097745;27;45457;-46
2022/09/19 01:56:19;;;;;;;;;2.00;2.00;;;;;21.33;35.47;101626.56;5097129;27;45424;-51
2022/09/19 01:58:56;;;;;;;;;1.00;1.00;;;;;21.33;35.95;101633.66;5097712;27;45570;-50
2022/09/19 02:01:32;;;;;;;;;3.25;2.00;;;;;21.33;35.78;101631.84;5095951;27;46521;-48
2022/09/19 02:04:19;;;;;;;;;2.25;2.25;;;;;21.31;35.95;101621.38;5096743;27;45717;-46
2022/09/19 02:06:56;;;;;;;;;2.00;2.00;;;;;21.33;35.60;101629.22;5102256;27;45439;-47
2022/09/19 02:09:27;;;;;;;;;1.00;1.00;;;;;21.34;35.83;101632.69;5097287;27;45331;-46
2022/09/19 02:11:58;;;;;;;;;2.00;2.00;;;;;21.33;35.68;101631.00;5096795;27;46623;-47
2022/09/19 02:14:27;;;;;;;;;2.00;2.00;;;;;21.31;35.87;101634.56;5101521;27;45832;-46
2022/09/19 02:17:07;;;;;;;;;2.75;1.50;;;;;21.33;35.79;101638.91;5107714;27;45390;-49
2022/09/19 02:19:41;;;;;;;;;3.25;2.75;;;;;21.34;35.73;101637.97;5097607;27;45508;-48
2022/09/19 02:22:14;;;;;;;;;2.00;2.00;;;;;21.33;35.98;101641.56;5096250;27;46367;-46
2022/09/19 02:24:45;;;;;;;;;2.00;2.00;;;;;21.33;35.95;101644.19;5099888;27;45882;-48
2022/09/19 02:27:20;;;;;;;;;2.00;2.00;;;;;21.31;35.60;101645.13;5097245;27;45462;-48
2022/09/19 02:29:51;;;;;;;;;2.00;2.00;;;;;21.33;36.03;101649.47;5096877;27;45396;-47
2022/09/19 02:32:17;;;;;;;;;2.00;2.00;;;;;21.31;35.88;101646.88;5096945;27;45389;-47
2022/09/19 02:34:44;;;;;;;;;1.75;1.75;;;;;21.31;35.74;101650.38;5096763;27;45884;-49
2022/09/19 02:37:22;;;;;;;;;2.00;2.00;;;;;21.30;35.75;101643.41;5097461;27;45408;-47
2022/09/19 02:40:20;;;;;;;;;1.75;1.75;;;;;21.32;35.89;101645.97;5101005;27;45318;-49
2022/09/19 02:42:57;;;;;;;;;1.00;1.00;;;;;21.30;35.93;101646.03;5097758;27;46201;-45
2022/09/19 02:45:29;;;;;;;;;2.00;2.00;;;;;21.31;35.86;101645.13;5100510;27;45710;-47
2022/09/19 02:48:03;;;;;;;;;2.00;2.00;;;;;21.30;35.79;101640.75;5107393;27;45259;-51
2022/09/19 02:50:41;;;;;;;;;3.00;2.00;;;;;21.31;35.97;101649.53;5114894;27;45204;-45
2022/09/19 02:53:12;;;;;;;;;3.00;1.50;;;;;21.31;35.76;101645.13;5105733;27;45295;-49
2022/09/19 02:55:46;;;;;;;;;3.00;1.25;;;;;21.30;36.17;101648.69;5100373;27;45313;-51
2022/09/19 02:58:15;;;;;;;;;1.75;1.75;;;;;21.30;36.09;101651.31;5100110;27;45410;-51
2022/09/19 03:00:47;;;;;;;;;2.00;2.00;;;;;21.31;36.16;101647.75;5100815;27;45338;-46
2022/09/19 03:06:16;;;;;;;;;2.00;2.00;;;;;21.31;36.06;101646.88;5115464;27;45187;-52
2022/09/19 03:08:45;;;;;;;;;2.00;2.00;;;;;21.30;35.93;101645.16;5117563;27;44755;-46
2022/09/19 03:11:16;;;;;;;;;1.75;1.75;;;;;21.30;36.22;101646.03;5119977;27;45259;-50
2022/09/19 03:13:43;;;;;;;;;2.00;2.00;;;;;21.30;35.88;101645.16;5107028;27;46098;-45
2022/09/19 03:16:16;;;;;;;;;2.00;2.00;;;;;21.31;36.22;101652.16;5102847;27;45710;-46
2022/09/19 03:18:46;;;;;;;;;2.75;1.25;;;;;21.29;36.02;101646.09;5100636;27;45393;-47
2022/09/19 03:21:12;;;;;;;;;2.00;2.00;;;;;21.29;35.87;101646.09;5113952;27;45474;-49
2022/09/19 03:23:44;;;;;;;;;1.25;1.25;;;;;21.30;35.99;101651.31;5110336;27;45507;-46
2022/09/19 03:26:17;;;;;;;;;1.25;0.75;;;;;21.28;36.08;101650.53;5109229;27;45756;-47
2022/09/19 03:28:43;;;;;;;;;1.50;1.00;;;;;21.30;35.96;101643.41;5121854;27;45445;-49
2022/09/19 03:31:08;;;;;;;;;2.00;2.00;;;;;21.29;35.95;101646.97;5108647;27;46173;-45
2022/09/19 03:33:34;;;;;;;;;2.00;2.00;;;;;21.30;36.14;101642.53;5115504;27;47181;-46
2022/09/19 03:36:06;;;;;;;;;4.25;2.00;;;;;21.29;36.33;101641.69;5117670;27;45341;-51
2022/09/19 03:38:32;;;;;;;;;2.00;2.00;;;;;21.29;36.47;101646.97;5106981;27;45302;-50
2022/09/19 03:40:58;;;;;;;;;1.75;1.75;;;;;21.29;36.03;101649.59;5100264;27;45331;-48
2022/09/19 03:43:23;;;;;;;;;2.75;2.00;;;;;21.29;36.37;101652.22;5101988;27;47168;-50
2022/09/19 03:45:49;;;;;;;;;1.75;1.75;;;;;21.28;36.25;101655.78;5099141;27;46208;-46
2022/09/19 03:48:15;;;;;;;;;3.00;2.00;;;;;21.28;36.49;101645.25;5102192;27;45357;-48
2022/09/19 03:50:41;;;;;;;;;1.00;1.00;;;;;21.28;36.54;101658.44;5095927;27;45587;-48
2022/09/19 03:53:07;;;;;;;;;1.50;1.50;;;;;21.29;35.97;101660.16;5098843;27;46416;-45
2022/09/19 03:55:34;;;;;;;;;5.00;2.75;;;;;21.28;36.30;101661.06;5097983;27;45463;-47
2022/09/19 03:57:59;;;;;;;;;2.00;2.00;;;;;21.28;35.94;101661.06;5099010;27;45291;-47
2022/09/19 04:00:25;;;;;;;;;2.00;2.00;;;;;21.28;36.57;101663.72;5099089;27;45305;-46
2022/09/19 04:02:52;;;;;;;;;2.00;2.00;;;;;21.27;35.94;101659.34;5097514;27;45295;-48
2022/09/19 04:05:17;;;;;;;;;2.50;2.00;;;;;21.27;36.42;101662.00;5098484;27;45553;-46
2022/09/19 04:07:43;;;;;;;;;2.00;2.00;;;;;21.26;36.43;101670.81;5100294;27;45442;-46
2022/09/19 04:10:08;;;;;;;;;3.00;2.00;;;;;21.25;36.29;101666.47;5107129;27;45993;-46
2022/09/19 04:12:34;;;;;;;;;1.25;0.25;;;;;21.26;36.68;101662.91;5100209;27;46487;-48
2022/09/19 04:15:00;;;;;;;;;2.50;1.25;;;;;21.26;36.42;101667.34;5098707;27;45226;-47
2022/09/19 04:17:27;;;;;;;;;2.25;2.25;;;;;21.25;36.56;101669.09;5099773;27;45280;-49
2022/09/19 04:19:52;;;;;;;;;2.75;2.00;;;;;21.24;36.24;101672.66;5104656;27;45300;-49
2022/09/19 04:22:18;;;;;;;;;2.00;2.00;;;;;21.25;36.51;101670.91;5103847;27;46275;-49
2022/09/19 04:24:44;;;;;;;;;3.50;3.00;;;;;21.24;36.43;101670.03;5100203;27;45311;-45
2022/09/19 04:27:11;;;;;;;;;2.00;2.00;;;;;21.25;36.30;101663.00;5098464;27;45252;-46
2022/09/19 04:29:36;;;;;;;;;2.00;2.00;;;;;21.24;36.58;101672.66;5101824;27;45318;-46
2022/09/19 04:32:02;;;;;;;;;1.00;1.00;;;;;21.23;36.53;101668.31;5107163;27;45361;-46
2022/09/19 04:34:28;;;;;;;;;1.75;1.75;;;;;21.23;36.80;101670.94;5102087;27;45398;-48
2022/09/19 04:36:56;;;;;;;;;3.00;3.00;;;;;21.23;36.42;101673.59;5113175;27;44714;-51
2022/09/19 04:39:21;;;;;;;;;3.00;2.00;;;;;21.23;36.49;101672.75;5112309;27;45277;-46
2022/09/19 04:41:50;;;;;;;;;3.75;2.00;;;;;21.22;36.25;101671.03;5116388;27;45515;-49
2022/09/19 04:44:16;;;;;;;;;2.00;2.00;;;;;21.21;36.58;101671.94;5117658;27;45082;-49
2022/09/19 04:46:41;;;;;;;;;2.25;2.25;;;;;21.20;36.50;101679.03;5121112;27;44768;-46
2022/09/19 04:49:07;;;;;;;;;2.00;1.00;;;;;21.21;36.64;101679.88;5106405;27;45690;-49
2022/09/19 04:51:33;;;;;;;;;1.25;1.25;;;;;21.21;36.35;101685.13;5110699;27;47038;-46
2022/09/19 04:53:59;;;;;;;;;2.50;2.00;;;;;21.19;36.84;101682.59;5115553;27;45317;-50
2022/09/19 04:56:26;;;;;;;;;2.25;2.25;;;;;21.19;36.54;101685.22;5111319;27;45175;-49
2022/09/19 04:58:51;;;;;;;;;2.25;2.00;;;;;21.19;36.68;101687.84;5102705;27;45488;-52
2022/09/19 05:01:17;;;;;;;;;3.00;2.75;;;;;21.20;36.65;101684.28;5099472;27;46393;-49
2022/09/19 05:03:45;;;;;;;;;5.00;4.00;;;;;21.18;36.78;101678.22;5101466;27;45321;-47
2022/09/19 05:06:12;;;;;;;;;2.75;2.75;;;;;21.20;36.54;101679.03;5101868;27;45294;-50
2022/09/19 05:08:37;;;;;;;;;3.25;3.25;;;;;21.18;36.49;101680.88;5099919;27;45570;-53
2022/09/19 05:11:05;;;;;;;;;4.75;4.00;;;;;21.19;36.55;101679.06;5098919;27;45475;-50
2022/09/19 05:13:34;;;;;;;;;3.75;2.75;;;;;21.17;36.58;101674.72;5100446;27;45384;-50
2022/09/19 05:16:01;;;;;;;;;6.00;3.25;;;;;21.18;36.80;101678.22;5104850;27;45309;-53
2022/09/19 05:18:28;;;;;;;;;3.25;3.25;;;;;21.17;36.69;101679.16;5113023;27;45396;-53
2022/09/19 05:20:54;;;;;;;;;4.75;4.75;;;;;21.18;36.66;101686.13;5119407;27;46358;-50
2022/09/19 05:23:24;;;;;;;;;4.00;4.00;;;;;21.18;36.60;101696.69;5118988;27;45113;-45
2022/09/19 05:25:53;;;;;;;;;1.75;1.75;;;;;21.16;36.85;101685.34;5114563;27;44780;-49
2022/09/19 05:28:20;;;;;;;;;3.25;3.25;;;;;21.17;36.78;101693.16;5115271;27;45226;-49
2022/09/19 05:30:49;;;;;;;;;3.25;3.25;;;;;21.16;37.00;101694.13;5117944;27;46567;-50
2022/09/19 05:33:20;;;;;;;;;4.00;3.00;;;;;21.14;36.92;101685.44;5111687;27;45224;-50
2022/09/19 05:35:45;;;;;;;;;3.00;3.00;;;;;21.16;37.07;101704.66;5112188;27;44723;-49
2022/09/19 05:38:10;;;;;;;;;3.25;3.25;;;;;21.15;36.54;101700.31;5109697;27;45598;-51
2022/09/19 05:40:36;;;;;;;;;3.00;3.00;;;;;21.16;37.01;101704.66;5105681;27;46941;-48
2022/09/19 05:43:02;;;;;;;;;5.00;4.50;;;;;21.15;36.76;101702.97;5105229;27;45212;-46
2022/09/19 05:45:27;;;;;;;;;5.50;4.00;;;;;21.15;36.73;101708.22;5106546;27;45481;-51
2022/09/19 05:47:59;;;;;;;;;4.00;4.00;;;;;21.15;37.16;101704.72;5100814;27;45263;-51
2022/09/19 05:50:24;;;;;;;;;4.75;3.25;;;;;21.15;36.76;101702.09;5108974;27;45357;-49
2022/09/19 05:55:36;;;;;;;;;4.50;3.00;;;;;21.13;36.77;101710.06;5098872;27;45405;-50
2022/09/19 05:58:01;;;;;;;;;3.00;3.00;;;;;21.14;36.92;101705.63;5097183;27;45681;-50
2022/09/19 06:00:27;;;;;;;;;4.50;4.00;;;;;21.13;36.96;101712.72;5098824;27;46444;-47
2022/09/19 06:03:00;;;;;;;;;5.75;3.75;;;;;21.13;37.32;101707.44;5107397;27;45932;-49
2022/09/19 06:05:28;;;;;;;;;4.00;4.00;;;;;21.14;37.42;101711.78;5098640;27;45842;-46
2022/09/19 06:07:57;;;;;;;;;4.00;4.00;;;;;21.14;37.25;101708.28;5103887;27;45495;-46
2022/09/19 06:10:24;;;;;;;;;3.00;3.00;;;;;21.13;37.26;101717.09;5105508;27;45420;-46
2022/09/19 06:12:50;;;;;;;;;3.75;3.75;;;;;21.12;37.48;101713.63;5115675;27;45260;-48
2022/09/19 06:15:16;;;;;;;;;3.00;3.00;;;;;21.13;37.21;101717.97;5116557;27;45148;-50
2022/09/19 06:17:41;;;;;;;;;5.00;4.50;;;;;21.12;37.23;101720.66;5105814;27;45573;-46
2022/09/19 06:20:08;;;;;;;;;3.25;3.25;;;;;21.13;36.93;101725.88;5108169;27;46113;-48
2022/09/19 06:22:34;;;;;;;;;5.25;3.75;;;;;21.13;37.19;101728.53;5103957;27;45433;-50
2022/09/19 06:25:00;;;;;;;;;4.00;4.00;;;;;21.13;37.01;101730.28;5103661;27;45255;-53
2022/09/19 06:27:27;;;;;;;;;6.50;4.25;;;;;21.14;37.25;101737.28;5103847;27;45623;-53
2022/09/19 06:29:53;;;;;;;;;5.00;2.50;;;;;21.14;37.01;101740.78;5107787;27;46974;-49
2022/09/19 06:32:19;;;;;;;;;3.25;3.25;;;;;21.14;37.27;101747.81;5104779;27;45471;-50
2022/09/19 06:34:44;;;;;;;;;3.75;3.00;;;;;21.14;37.36;101751.31;5103797;27;45986;-54
2022/09/19 06:37:11;;;;;;;;;4.00;2.00;;;;;21.13;37.15;101746.97;5103618;27;57565;-48
2022/09/19 06:39:37;;;;;;;;;5.50;3.75;;;;;21.15;36.93;101744.25;5104398;27;47036;-52
2022/09/19 06:42:03;;;;;;;;;2.25;2.25;;;;;21.15;37.07;101758.31;5103628;27;45220;-51
2022/09/19 06:44:29;;;;;;;;;3.00;3.00;;;;;21.15;37.40;101757.44;5103693;27;45436;-52
2022/09/19 06:46:54;;;;;;;;;4.00;4.00;;;;;21.14;37.20;101759.22;5105089;27;45638;-51
2022/09/19 06:49:20;;;;;;;;;3.00;3.00;;;;;21.16;37.25;101767.06;5104474;27;47273;-49
2022/09/19 06:51:45;;;;;;;;;6.25;3.25;;;;;21.15;37.45;101770.63;5113024;27;45331;-47
2022/09/19 06:54:10;;;;;;;;;3.00;3.00;;;;;21.16;37.08;101767.06;5114058;27;45332;-50
2022/09/19 06:56:36;;;;;;;;;6.00;3.25;;;;;21.15;36.95;101768.84;5105561;27;45769;-46
2022/09/19 06:59:02;;;;;;;;;3.50;3.50;;;;;21.16;37.32;101769.69;5110121;27;45400;-47
2022/09/19 07:01:27;;;;;;;;;4.00;4.00;;;;;21.16;37.46;101772.34;5121783;27;45305;-48
2022/09/19 07:03:52;;;;;;;;;5.67;5.00;;;;;21.16;37.55;101773.22;5117800;27;55283;-52
2022/09/19 07:06:18;;;;;;;;;3.00;3.00;;;;;21.16;37.40;101772.34;5107070;27;45375;-47
2022/09/19 07:08:44;;;;;;;;;5.25;3.75;;;;;21.16;37.37;101783.75;5104515;27;45489;-49
2022/09/19 07:11:09;;;;;;;;;4.00;4.00;;;;;21.16;37.38;101783.75;5103336;27;45566;-46
2022/09/19 07:13:34;;;;;;;;;4.75;4.75;;;;;21.16;37.17;101786.38;5103730;27;45602;-46
2022/09/19 07:16:02;;;;;;;;;4.00;4.00;;;;;21.16;37.44;101783.75;5103392;27;45326;-46
2022/09/19 07:18:28;;;;;;;;;5.25;5.00;;;;;21.16;37.13;101793.44;5101972;27;47318;-47
2022/09/19 07:20:53;;;;;;;;;3.75;3.75;;;;;21.17;37.38;101795.16;5103204;27;45488;-48
2022/09/19 07:23:19;;;;;;;;;4.00;4.00;;;;;21.17;37.46;101796.00;5099051;27;55081;-46
2022/09/19 07:25:45;;;;;;;;;3.75;3.75;;;;;21.16;37.33;101793.44;5100213;27;45395;-47
2022/09/19 07:28:16;;;;;;;;;6.00;3.75;;;;;21.17;37.40;101798.63;5099296;27;46289;-46
2022/09/19 07:30:43;;;;;;;;;3.00;3.00;;;;;21.17;37.05;101803.06;5099165;27;45900;-48
2022/09/19 07:33:10;;;;;;;;;5.00;3.75;;;;;21.17;37.34;101801.25;5112723;27;45358;-46
2022/09/19 07:35:36;;;;;;;;;5.00;3.00;;;;;21.18;37.33;101804.78;5105749;27;45291;-47
2022/09/19 07:38:04;;;;;;;;;3.25;3.25;;;;;21.17;37.47;101800.41;5099152;27;46617;-47
2022/09/19 07:40:29;;;;;;;;;3.25;3.25;;;;;21.18;37.45;101802.13;5099388;27;45453;-48
2022/09/19 07:43:02;;;;;;;;;4.00;4.00;;;;;21.18;37.10;101807.41;5099015;27;45403;-45
2022/09/19 07:45:28;;;;;;;;;7.50;3.75;;;;;21.18;37.21;101807.41;5099297;27;45575;-46
2022/09/19 07:47:55;;;;;;;;;3.00;3.00;;;;;21.17;37.30;101811.81;5097856;27;47626;-49
2022/09/19 07:50:20;;;;;;;;;3.00;3.00;;;;;21.19;37.31;101816.16;5098970;27;45799;-44
2022/09/19 07:52:46;;;;;;;;;5.00;3.00;;;;;21.18;37.26;101812.69;5099343;27;45793;-48
2022/09/19 07:55:13;;;;;;;;;4.50;3.75;;;;;21.19;37.44;101819.66;5097771;27;45567;-46
2022/09/19 07:57:48;;;;;;;;;4.50;3.00;;;;;21.19;37.60;101817.03;5099183;27;46488;-51
2022/09/19 08:00:14;;;;;;;;;3.25;3.00;;;;;21.19;37.53;101813.53;5099084;27;45915;-48
2022/09/19 08:02:39;;;;;;;;;3.25;2.25;;;;;21.19;37.42;101819.66;5098061;27;45625;-48
2022/09/19 08:05:05;;;;;;;;;5.00;4.00;;;;;21.20;37.43;101821.38;5099115;27;45281;-48
2022/09/19 08:07:30;;;;;;;;;3.00;2.00;;;;;21.20;37.80;101831.94;5098604;27;45427;-47
2022/09/19 08:09:56;;;;;;;;;2.75;2.00;;;;;21.20;37.77;101826.66;5098809;27;45857;-49
2022/09/19 08:12:22;;;;;;;;;2.00;2.00;;;;;21.21;37.72;101830.13;5098182;27;45733;-47
2022/09/19 08:14:47;;;;;;;;;4.25;3.75;;;;;21.21;37.37;101828.38;5099637;27;45337;-48
2022/09/19 08:17:12;;;;;;;;;2.50;2.50;;;;;21.22;37.36;101829.22;5098007;27;46263;-46
2022/09/19 08:19:38;;;;;;;;;2.00;2.00;;;;;21.22;37.44;101830.06;5098508;27;58530;-50
2022/09/19 08:22:03;;;;;;;;;3.50;2.00;;;;;21.24;37.28;101838.78;5099516;27;45797;-47
2022/09/19 08:24:29;;;;;;;;;3.00;3.00;;;;;21.24;37.58;101843.19;5099314;27;45191;-52
2022/09/19 08:26:56;;;;;;;;;3.00;3.00;;;;;21.24;37.24;101838.78;5100322;27;45223;-51
2022/09/19 08:29:21;;;;;;;;;3.00;3.00;;;;;21.24;37.38;101843.19;5099899;27;45313;-50
2022/09/19 08:31:46;;;;;;;;;2.75;2.75;;;;;21.25;37.41;101839.66;5098359;27;45457;-49
2022/09/19 08:34:12;;;;;;;;;2.00;2.00;;;;;21.24;37.44;101851.94;5097187;27;45575;-50
